sensor_id;sensor_type;location;lat;lon;timestamp;temperature;humidity
26599;DHT22;14240;51.064;16.612;2022-11-15T00:00:24;5.50;99.90
26599;DHT22;14240;51.064;16.612;2022-11-15T00:02:52;5.50;99.90
26599;DHT22;14240;51.064;16.612;2022-11-15T00:05:18;5.40;99.90
26599;DHT22;14240;51.064;16.612;2022-11-15T00:07:44;5.40;99.90
26599;DHT22;14240;51.064;16.612;2022-11-15T00:10:10;5.30;99.90
26599;DHT22;14240;51.064;16.612;2022-11-15T00:12:35;5.30;99.90
26599;DHT22;14240;51.064;16.612;2022-11-15T00:15:01;5.20;99.90
26599;DHT22;14240;51.064;16.612;2022-11-15T00:17:27;5.20;99.90
26599;DHT22;14240;51.064;16.612;2022-11-15T00:19:53;5.20;99.90
26599;DHT22;14240;51.064;16.612;2022-11-15T00:22:18;5.20;99.90
26599;DHT22;14240;51.064;16.612;2022-11-15T00:24:44;5.20;99.90
26599;DHT22;14240;51.064;16.612;2022-11-15T00:27:10;5.10;99.90
26599;DHT22;14240;51.064;16.612;2022-11-15T00:29:36;5.10;99.90
26599;DHT22;14240;51.064;16.612;2022-11-15T00:32:04;5.10;99.90
26599;DHT22;14240;51.064;16.612;2022-11-15T00:34:29;5.00;99.90
26599;DHT22;14240;51.064;16.612;2022-11-15T00:36:55;5.00;99.90
26599;DHT22;14240;51.064;16.612;2022-11-15T00:39:21;4.90;99.90
26599;DHT22;14240;51.064;16.612;2022-11-15T00:41:47;4.90;99.90
26599;DHT22;14240;51.064;16.612;2022-11-15T00:44:13;4.90;99.90
26599;DHT22;14240;51.064;16.612;2022-11-15T00:46:38;4.90;99.90
26599;DHT22;14240;51.064;16.612;2022-11-15T00:49:04;4.80;99.90
26599;DHT22;14240;51.064;16.612;2022-11-15T00:51:30;4.80;99.90
26599;DHT22;14240;51.064;16.612;2022-11-15T00:53:55;4.80;99.90
26599;DHT22;14240;51.064;16.612;2022-11-15T00:56:21;4.80;99.90
26599;DHT22;14240;51.064;16.612;2022-11-15T00:58:47;4.80;99.90
26599;DHT22;14240;51.064;16.612;2022-11-15T01:01:13;4.80;99.90
26599;DHT22;14240;51.064;16.612;2022-11-15T01:03:40;4.70;99.90
26599;DHT22;14240;51.064;16.612;2022-11-15T01:06:09;4.70;99.90
26599;DHT22;14240;51.064;16.612;2022-11-15T01:08:35;4.70;99.90
26599;DHT22;14240;51.064;16.612;2022-11-15T01:11:07;4.70;99.90
26599;DHT22;14240;51.064;16.612;2022-11-15T01:13:34;4.70;99.90
26599;DHT22;14240;51.064;16.612;2022-11-15T01:16:15;4.70;99.90
26599;DHT22;14240;51.064;16.612;2022-11-15T01:18:45;4.70;99.90
26599;DHT22;14240;51.064;16.612;2022-11-15T01:21:16;4.70;99.90
26599;DHT22;14240;51.064;16.612;2022-11-15T01:23:43;4.60;99.90
26599;DHT22;14240;51.064;16.612;2022-11-15T01:26:13;4.60;99.90
26599;DHT22;14240;51.064;16.612;2022-11-15T01:28:40;4.50;99.90
26599;DHT22;14240;51.064;16.612;2022-11-15T01:31:15;4.50;99.90
26599;DHT22;14240;51.064;16.612;2022-11-15T01:33:41;4.40;99.90
26599;DHT22;14240;51.064;16.612;2022-11-15T01:36:10;4.40;99.90
26599;DHT22;14240;51.064;16.612;2022-11-15T01:38:37;4.40;99.90
26599;DHT22;14240;51.064;16.612;2022-11-15T01:41:03;4.40;99.90
26599;DHT22;14240;51.064;16.612;2022-11-15T01:43:32;4.40;99.90
26599;DHT22;14240;51.064;16.612;2022-11-15T01:46:04;4.40;99.90
26599;DHT22;14240;51.064;16.612;2022-11-15T01:48:34;4.40;99.90
26599;DHT22;14240;51.064;16.612;2022-11-15T01:51:03;4.40;99.90
26599;DHT22;14240;51.064;16.612;2022-11-15T01:53:30;4.30;99.90
26599;DHT22;14240;51.064;16.612;2022-11-15T01:55:57;4.30;99.90
26599;DHT22;14240;51.064;16.612;2022-11-15T01:58:23;4.30;99.90
26599;DHT22;14240;51.064;16.612;2022-11-15T02:00:49;4.30;99.90
26599;DHT22;14240;51.064;16.612;2022-11-15T02:03:16;4.30;99.90
26599;DHT22;14240;51.064;16.612;2022-11-15T02:05:43;4.20;99.90
26599;DHT22;14240;51.064;16.612;2022-11-15T02:08:10;4.30;99.90
26599;DHT22;14240;51.064;16.612;2022-11-15T02:10:48;4.20;99.90
26599;DHT22;14240;51.064;16.612;2022-11-15T02:13:15;4.20;99.90
26599;DHT22;14240;51.064;16.612;2022-11-15T02:18:30;4.20;99.90
26599;DHT22;14240;51.064;16.612;2022-11-15T02:21:02;4.20;99.90
26599;DHT22;14240;51.064;16.612;2022-11-15T02:32:26;4.10;99.90
26599;DHT22;14240;51.064;16.612;2022-11-15T02:37:55;4.10;99.90
26599;DHT22;14240;51.064;16.612;2022-11-15T02:40:39;4.10;99.90
26599;DHT22;14240;51.064;16.612;2022-11-15T02:43:11;4.00;99.90
26599;DHT22;14240;51.064;16.612;2022-11-15T02:46:13;4.00;99.90
26599;DHT22;14240;51.064;16.612;2022-11-15T02:48:41;4.00;99.90
26599;DHT22;14240;51.064;16.612;2022-11-15T02:51:09;4.00;99.90
26599;DHT22;14240;51.064;16.612;2022-11-15T02:53:35;3.90;99.90
26599;DHT22;14240;51.064;16.612;2022-11-15T02:56:01;4.20;99.90
26599;DHT22;14240;51.064;16.612;2022-11-15T03:01:04;3.90;99.90
26599;DHT22;14240;51.064;16.612;2022-11-15T03:11:21;3.80;99.90
26599;DHT22;14240;51.064;16.612;2022-11-15T03:14:02;3.80;99.90
26599;DHT22;14240;51.064;16.612;2022-11-15T03:16:38;3.70;99.90
26599;DHT22;14240;51.064;16.612;2022-11-15T03:21:42;3.70;99.90
26599;DHT22;14240;51.064;16.612;2022-11-15T03:24:12;3.70;99.90
26599;DHT22;14240;51.064;16.612;2022-11-15T03:26:41;3.70;99.90
26599;DHT22;14240;51.064;16.612;2022-11-15T03:29:13;3.70;99.90
26599;DHT22;14240;51.064;16.612;2022-11-15T03:31:44;3.70;99.90
26599;DHT22;14240;51.064;16.612;2022-11-15T03:36:51;3.60;99.90
26599;DHT22;14240;51.064;16.612;2022-11-15T03:39:19;3.60;99.90
26599;DHT22;14240;51.064;16.612;2022-11-15T03:44:51;3.60;99.90
26599;DHT22;14240;51.064;16.612;2022-11-15T03:50:13;3.50;99.90
26599;DHT22;14240;51.064;16.612;2022-11-15T03:52:40;3.60;99.90
26599;DHT22;14240;51.064;16.612;2022-11-15T03:55:09;3.50;99.90
26599;DHT22;14240;51.064;16.612;2022-11-15T03:57:35;3.50;99.90
26599;DHT22;14240;51.064;16.612;2022-11-15T04:00:02;3.50;99.90
26599;DHT22;14240;51.064;16.612;2022-11-15T04:02:28;3.50;99.90
26599;DHT22;14240;51.064;16.612;2022-11-15T04:04:54;3.50;99.90
26599;DHT22;14240;51.064;16.612;2022-11-15T04:07:19;3.50;99.90
26599;DHT22;14240;51.064;16.612;2022-11-15T04:09:45;3.50;99.90
26599;DHT22;14240;51.064;16.612;2022-11-15T04:12:38;3.50;99.90
26599;DHT22;14240;51.064;16.612;2022-11-15T04:15:07;3.50;99.90
26599;DHT22;14240;51.064;16.612;2022-11-15T04:17:50;3.50;99.90
26599;DHT22;14240;51.064;16.612;2022-11-15T04:20:18;3.50;99.90
26599;DHT22;14240;51.064;16.612;2022-11-15T04:23:23;3.50;99.90
26599;DHT22;14240;51.064;16.612;2022-11-15T04:26:15;3.40;99.90
26599;DHT22;14240;51.064;16.612;2022-11-15T04:28:41;3.40;99.90
26599;DHT22;14240;51.064;16.612;2022-11-15T04:31:26;3.40;99.90
26599;DHT22;14240;51.064;16.612;2022-11-15T04:33:52;3.40;99.90
26599;DHT22;14240;51.064;16.612;2022-11-15T04:36:19;3.40;99.90
26599;DHT22;14240;51.064;16.612;2022-11-15T04:39:03;3.40;99.90
26599;DHT22;14240;51.064;16.612;2022-11-15T04:41:29;3.30;99.90
26599;DHT22;14240;51.064;16.612;2022-11-15T04:43:55;3.30;99.90
26599;DHT22;14240;51.064;16.612;2022-11-15T04:46:22;3.30;99.90
26599;DHT22;14240;51.064;16.612;2022-11-15T04:48:49;3.30;99.90
26599;DHT22;14240;51.064;16.612;2022-11-15T04:51:15;3.30;99.90
26599;DHT22;14240;51.064;16.612;2022-11-15T04:53:40;3.20;99.90
26599;DHT22;14240;51.064;16.612;2022-11-15T04:56:06;3.20;99.90
26599;DHT22;14240;51.064;16.612;2022-11-15T04:58:32;3.20;99.90
26599;DHT22;14240;51.064;16.612;2022-11-15T05:00:58;3.20;99.90
26599;DHT22;14240;51.064;16.612;2022-11-15T05:03:23;3.30;99.90
26599;DHT22;14240;51.064;16.612;2022-11-15T05:06:08;3.30;99.90
26599;DHT22;14240;51.064;16.612;2022-11-15T05:08:33;3.30;99.90
26599;DHT22;14240;51.064;16.612;2022-11-15T05:10:59;3.30;99.90
26599;DHT22;14240;51.064;16.612;2022-11-15T05:13:25;3.30;99.90
26599;DHT22;14240;51.064;16.612;2022-11-15T05:15:51;3.30;99.90
26599;DHT22;14240;51.064;16.612;2022-11-15T05:18:16;3.30;99.90
26599;DHT22;14240;51.064;16.612;2022-11-15T05:20:42;3.30;99.90
26599;DHT22;14240;51.064;16.612;2022-11-15T05:23:08;3.30;99.90
26599;DHT22;14240;51.064;16.612;2022-11-15T05:25:35;3.20;99.90
26599;DHT22;14240;51.064;16.612;2022-11-15T05:28:01;3.20;99.90
26599;DHT22;14240;51.064;16.612;2022-11-15T05:30:27;3.20;99.90
26599;DHT22;14240;51.064;16.612;2022-11-15T05:32:53;3.20;99.90
26599;DHT22;14240;51.064;16.612;2022-11-15T05:35:29;3.10;99.90
26599;DHT22;14240;51.064;16.612;2022-11-15T05:37:56;3.10;99.90
26599;DHT22;14240;51.064;16.612;2022-11-15T05:40:22;3.10;99.90
26599;DHT22;14240;51.064;16.612;2022-11-15T05:42:48;3.10;99.90
26599;DHT22;14240;51.064;16.612;2022-11-15T05:45:15;3.10;99.90
26599;DHT22;14240;51.064;16.612;2022-11-15T05:47:41;3.10;99.90
26599;DHT22;14240;51.064;16.612;2022-11-15T05:50:08;3.10;99.90
26599;DHT22;14240;51.064;16.612;2022-11-15T05:52:37;3.10;99.90
26599;DHT22;14240;51.064;16.612;2022-11-15T05:55:05;3.00;99.90
26599;DHT22;14240;51.064;16.612;2022-11-15T05:57:32;3.00;99.90
26599;DHT22;14240;51.064;16.612;2022-11-15T05:59:58;3.00;99.90
26599;DHT22;14240;51.064;16.612;2022-11-15T06:02:23;3.00;99.90
26599;DHT22;14240;51.064;16.612;2022-11-15T06:04:49;3.00;99.90
26599;DHT22;14240;51.064;16.612;2022-11-15T06:07:15;3.00;99.90
26599;DHT22;14240;51.064;16.612;2022-11-15T06:09:41;3.00;99.90
26599;DHT22;14240;51.064;16.612;2022-11-15T06:12:06;3.00;99.90
26599;DHT22;14240;51.064;16.612;2022-11-15T06:14:32;3.00;99.90
26599;DHT22;14240;51.064;16.612;2022-11-15T06:16:58;3.00;99.90
26599;DHT22;14240;51.064;16.612;2022-11-15T06:19:23;3.00;99.90
26599;DHT22;14240;51.064;16.612;2022-11-15T06:21:49;3.00;99.90
26599;DHT22;14240;51.064;16.612;2022-11-15T06:24:15;3.00;99.90
26599;DHT22;14240;51.064;16.612;2022-11-15T06:26:42;3.00;99.90
26599;DHT22;14240;51.064;16.612;2022-11-15T06:29:07;3.00;99.90
26599;DHT22;14240;51.064;16.612;2022-11-15T06:31:34;3.00;99.90
26599;DHT22;14240;51.064;16.612;2022-11-15T06:34:00;3.00;99.90
26599;DHT22;14240;51.064;16.612;2022-11-15T06:36:25;3.10;99.90
26599;DHT22;14240;51.064;16.612;2022-11-15T06:38:51;3.20;99.90
26599;DHT22;14240;51.064;16.612;2022-11-15T06:41:17;3.20;99.90
26599;DHT22;14240;51.064;16.612;2022-11-15T06:43:43;3.30;99.90
26599;DHT22;14240;51.064;16.612;2022-11-15T06:46:09;3.30;99.90
26599;DHT22;14240;51.064;16.612;2022-11-15T06:48:35;3.40;99.90
26599;DHT22;14240;51.064;16.612;2022-11-15T06:51:03;3.40;99.90
26599;DHT22;14240;51.064;16.612;2022-11-15T06:53:29;3.40;99.90
26599;DHT22;14240;51.064;16.612;2022-11-15T06:56:05;3.50;99.90
26599;DHT22;14240;51.064;16.612;2022-11-15T06:58:31;3.50;99.90
26599;DHT22;14240;51.064;16.612;2022-11-15T07:01:02;3.50;99.90
26599;DHT22;14240;51.064;16.612;2022-11-15T07:03:28;3.50;99.90
26599;DHT22;14240;51.064;16.612;2022-11-15T07:05:55;3.50;99.90
26599;DHT22;14240;51.064;16.612;2022-11-15T07:08:22;3.60;99.90
26599;DHT22;14240;51.064;16.612;2022-11-15T07:10:48;3.60;99.90
26599;DHT22;14240;51.064;16.612;2022-11-15T07:13:14;3.60;99.90
26599;DHT22;14240;51.064;16.612;2022-11-15T07:15:40;3.60;99.90
26599;DHT22;14240;51.064;16.612;2022-11-15T07:18:06;3.70;99.90
26599;DHT22;14240;51.064;16.612;2022-11-15T07:20:31;3.70;99.90
26599;DHT22;14240;51.064;16.612;2022-11-15T07:23:01;3.70;99.90
26599;DHT22;14240;51.064;16.612;2022-11-15T07:25:28;3.80;99.90
26599;DHT22;14240;51.064;16.612;2022-11-15T07:27:57;3.80;99.90
26599;DHT22;14240;51.064;16.612;2022-11-15T07:30:24;4.00;99.90
26599;DHT22;14240;51.064;16.612;2022-11-15T07:32:57;4.10;99.90
26599;DHT22;14240;51.064;16.612;2022-11-15T07:35:23;4.20;99.90
26599;DHT22;14240;51.064;16.612;2022-11-15T07:37:57;4.20;99.90
26599;DHT22;14240;51.064;16.612;2022-11-15T07:40:24;4.30;99.90
26599;DHT22;14240;51.064;16.612;2022-11-15T07:42:49;4.40;99.90
26599;DHT22;14240;51.064;16.612;2022-11-15T07:45:18;4.50;99.90
26599;DHT22;14240;51.064;16.612;2022-11-15T07:47:49;4.70;99.90
26599;DHT22;14240;51.064;16.612;2022-11-15T07:50:15;4.90;99.90
26599;DHT22;14240;51.064;16.612;2022-11-15T07:52:41;5.10;99.90
26599;DHT22;14240;51.064;16.612;2022-11-15T07:55:08;5.30;99.90
26599;DHT22;14240;51.064;16.612;2022-11-15T07:57:34;5.40;99.90
26599;DHT22;14240;51.064;16.612;2022-11-15T07:59:59;5.50;99.90
26599;DHT22;14240;51.064;16.612;2022-11-15T08:02:25;5.60;99.90
26599;DHT22;14240;51.064;16.612;2022-11-15T08:04:51;5.70;99.90
26599;DHT22;14240;51.064;16.612;2022-11-15T08:07:16;5.80;99.90
26599;DHT22;14240;51.064;16.612;2022-11-15T08:09:42;6.00;99.90
26599;DHT22;14240;51.064;16.612;2022-11-15T08:12:08;6.20;99.90
26599;DHT22;14240;51.064;16.612;2022-11-15T08:14:35;6.30;99.90
26599;DHT22;14240;51.064;16.612;2022-11-15T08:17:00;6.50;99.90
26599;DHT22;14240;51.064;16.612;2022-11-15T08:19:26;6.70;99.90
26599;DHT22;14240;51.064;16.612;2022-11-15T08:21:52;7.00;99.90
26599;DHT22;14240;51.064;16.612;2022-11-15T08:24:18;7.30;99.90
26599;DHT22;14240;51.064;16.612;2022-11-15T08:26:44;7.60;99.90
26599;DHT22;14240;51.064;16.612;2022-11-15T08:29:09;7.70;99.90
26599;DHT22;14240;51.064;16.612;2022-11-15T08:31:36;7.80;99.90
26599;DHT22;14240;51.064;16.612;2022-11-15T08:34:06;8.00;99.90
26599;DHT22;14240;51.064;16.612;2022-11-15T08:36:31;8.10;99.90
26599;DHT22;14240;51.064;16.612;2022-11-15T08:38:57;8.20;99.90
26599;DHT22;14240;51.064;16.612;2022-11-15T08:41:30;8.70;99.90
26599;DHT22;14240;51.064;16.612;2022-11-15T08:43:56;9.60;99.90
26599;DHT22;14240;51.064;16.612;2022-11-15T08:46:22;10.80;99.90
26599;DHT22;14240;51.064;16.612;2022-11-15T08:48:47;12.10;99.90
26599;DHT22;14240;51.064;16.612;2022-11-15T08:51:13;13.30;99.90
26599;DHT22;14240;51.064;16.612;2022-11-15T08:53:39;14.60;99.90
26599;DHT22;14240;51.064;16.612;2022-11-15T08:56:09;15.60;99.90
26599;DHT22;14240;51.064;16.612;2022-11-15T08:58:35;16.50;99.90
26599;DHT22;14240;51.064;16.612;2022-11-15T09:01:01;17.50;99.90
26599;DHT22;14240;51.064;16.612;2022-11-15T09:03:28;18.30;99.90
26599;DHT22;14240;51.064;16.612;2022-11-15T09:05:57;19.10;99.90
26599;DHT22;14240;51.064;16.612;2022-11-15T09:08:24;19.80;99.90
26599;DHT22;14240;51.064;16.612;2022-11-15T09:10:50;20.20;99.90
26599;DHT22;14240;51.064;16.612;2022-11-15T09:13:16;21.00;99.90
26599;DHT22;14240;51.064;16.612;2022-11-15T09:15:41;21.50;99.90
26599;DHT22;14240;51.064;16.612;2022-11-15T09:18:07;22.00;99.90
26599;DHT22;14240;51.064;16.612;2022-11-15T09:20:33;22.50;99.90
26599;DHT22;14240;51.064;16.612;2022-11-15T09:23:00;23.00;99.00
26599;DHT22;14240;51.064;16.612;2022-11-15T09:25:26;23.50;97.50
26599;DHT22;14240;51.064;16.612;2022-11-15T09:27:52;23.90;96.40
26599;DHT22;14240;51.064;16.612;2022-11-15T09:30:18;24.30;95.20
26599;DHT22;14240;51.064;16.612;2022-11-15T09:32:43;24.70;93.60
26599;DHT22;14240;51.064;16.612;2022-11-15T09:35:09;24.80;91.80
26599;DHT22;14240;51.064;16.612;2022-11-15T09:37:35;25.00;91.10
26599;DHT22;14240;51.064;16.612;2022-11-15T09:40:01;25.20;90.30
26599;DHT22;14240;51.064;16.612;2022-11-15T09:42:47;25.50;89.00
26599;DHT22;14240;51.064;16.612;2022-11-15T09:45:36;25.70;87.70
26599;DHT22;14240;51.064;16.612;2022-11-15T09:51:32;26.20;84.80
26599;DHT22;14240;51.064;16.612;2022-11-15T09:56:37;26.70;80.90
26599;DHT22;14240;51.064;16.612;2022-11-15T10:04:47;26.50;78.50
26599;DHT22;14240;51.064;16.612;2022-11-15T10:10:47;25.00;78.00
26599;DHT22;14240;51.064;16.612;2022-11-15T10:13:33;24.10;79.30
26599;DHT22;14240;51.064;16.612;2022-11-15T10:16:25;23.20;81.60
26599;DHT22;14240;51.064;16.612;2022-11-15T10:24:42;21.60;85.30
26599;DHT22;14240;51.064;16.612;2022-11-15T10:27:14;21.20;86.00
26599;DHT22;14240;51.064;16.612;2022-11-15T10:29:50;20.90;86.80
26599;DHT22;14240;51.064;16.612;2022-11-15T10:32:20;20.70;87.30
26599;DHT22;14240;51.064;16.612;2022-11-15T10:34:47;20.50;87.90
26599;DHT22;14240;51.064;16.612;2022-11-15T10:37:13;20.30;88.30
26599;DHT22;14240;51.064;16.612;2022-11-15T10:39:39;20.20;89.50
26599;DHT22;14240;51.064;16.612;2022-11-15T10:42:18;20.10;89.50
26599;DHT22;14240;51.064;16.612;2022-11-15T10:44:44;19.90;90.10
26599;DHT22;14240;51.064;16.612;2022-11-15T10:47:24;19.70;90.20
26599;DHT22;14240;51.064;16.612;2022-11-15T10:49:58;19.60;90.60
26599;DHT22;14240;51.064;16.612;2022-11-15T10:52:24;19.50;90.70
26599;DHT22;14240;51.064;16.612;2022-11-15T10:54:58;19.30;90.90
26599;DHT22;14240;51.064;16.612;2022-11-15T10:57:37;19.30;91.10
26599;DHT22;14240;51.064;16.612;2022-11-15T11:00:13;19.20;91.20
26599;DHT22;14240;51.064;16.612;2022-11-15T11:06:06;19.00;91.60
26599;DHT22;14240;51.064;16.612;2022-11-15T11:08:32;18.90;91.60
26599;DHT22;14240;51.064;16.612;2022-11-15T11:11:00;18.90;91.60
26599;DHT22;14240;51.064;16.612;2022-11-15T11:13:35;18.70;91.70
26599;DHT22;14240;51.064;16.612;2022-11-15T11:19:08;18.60;92.10
26599;DHT22;14240;51.064;16.612;2022-11-15T11:21:44;18.50;92.30
26599;DHT22;14240;51.064;16.612;2022-11-15T11:24:23;18.50;92.50
26599;DHT22;14240;51.064;16.612;2022-11-15T11:27:16;18.50;92.40
26599;DHT22;14240;51.064;16.612;2022-11-15T11:40:44;18.00;93.60
26599;DHT22;14240;51.064;16.612;2022-11-15T11:46:14;17.90;94.00
26599;DHT22;14240;51.064;16.612;2022-11-15T11:48:48;17.80;94.20
26599;DHT22;14240;51.064;16.612;2022-11-15T11:51:23;17.70;94.50
26599;DHT22;14240;51.064;16.612;2022-11-15T11:53:56;17.70;94.40
26599;DHT22;14240;51.064;16.612;2022-11-15T11:56:48;17.60;94.50
26599;DHT22;14240;51.064;16.612;2022-11-15T11:59:39;17.50;94.90
26599;DHT22;14240;51.064;16.612;2022-11-15T12:02:16;17.50;94.70
26599;DHT22;14240;51.064;16.612;2022-11-15T12:04:49;17.50;94.80
26599;DHT22;14240;51.064;16.612;2022-11-15T12:07:23;17.40;95.00
26599;DHT22;14240;51.064;16.612;2022-11-15T12:10:03;17.30;95.20
26599;DHT22;14240;51.064;16.612;2022-11-15T12:12:38;17.30;95.10
26599;DHT22;14240;51.064;16.612;2022-11-15T12:15:16;17.20;95.10
26599;DHT22;14240;51.064;16.612;2022-11-15T12:17:42;17.10;95.20
26599;DHT22;14240;51.064;16.612;2022-11-15T12:20:21;17.10;95.60
26599;DHT22;14240;51.064;16.612;2022-11-15T12:30:50;17.00;96.70
26599;DHT22;14240;51.064;16.612;2022-11-15T12:33:42;16.80;97.00
26599;DHT22;14240;51.064;16.612;2022-11-15T12:36:34;16.70;97.50
26599;DHT22;14240;51.064;16.612;2022-11-15T12:41:31;16.40;98.10
26599;DHT22;14240;51.064;16.612;2022-11-15T12:43:58;16.40;98.40
26599;DHT22;14240;51.064;16.612;2022-11-15T12:59:55;15.80;99.90
26599;DHT22;14240;51.064;16.612;2022-11-15T13:02:31;15.80;99.90
26599;DHT22;14240;51.064;16.612;2022-11-15T13:18:28;15.40;99.90
26599;DHT22;14240;51.064;16.612;2022-11-15T13:20:33;15.30;99.90
26599;DHT22;14240;51.064;16.612;2022-11-15T13:23:00;15.20;99.90
26599;DHT22;14240;51.064;16.612;2022-11-15T13:25:46;15.20;99.90
26599;DHT22;14240;51.064;16.612;2022-11-15T13:30:54;15.10;99.90
26599;DHT22;14240;51.064;16.612;2022-11-15T13:33:27;15.10;99.90
26599;DHT22;14240;51.064;16.612;2022-11-15T13:35:57;15.00;99.90
26599;DHT22;14240;51.064;16.612;2022-11-15T13:40:49;14.90;99.90
26599;DHT22;14240;51.064;16.612;2022-11-15T13:43:36;14.90;99.90
26599;DHT22;14240;51.064;16.612;2022-11-15T13:46:38;14.80;99.90
26599;DHT22;14240;51.064;16.612;2022-11-15T13:49:10;14.70;99.90
26599;DHT22;14240;51.064;16.612;2022-11-15T13:51:47;14.60;99.90
26599;DHT22;14240;51.064;16.612;2022-11-15T13:54:25;14.60;99.90
26599;DHT22;14240;51.064;16.612;2022-11-15T13:56:57;14.50;99.90
26599;DHT22;14240;51.064;16.612;2022-11-15T13:59:29;14.40;99.90
26599;DHT22;14240;51.064;16.612;2022-11-15T14:01:58;14.40;99.90
26599;DHT22;14240;51.064;16.612;2022-11-15T14:04:27;14.30;99.90
26599;DHT22;14240;51.064;16.612;2022-11-15T14:06:59;14.30;99.90
26599;DHT22;14240;51.064;16.612;2022-11-15T14:09:40;14.20;99.90
26599;DHT22;14240;51.064;16.612;2022-11-15T14:12:31;14.10;99.90
26599;DHT22;14240;51.064;16.612;2022-11-15T14:15:36;14.10;99.90
26599;DHT22;14240;51.064;16.612;2022-11-15T14:18:03;14.00;99.90
26599;DHT22;14240;51.064;16.612;2022-11-15T14:20:38;14.00;99.90
26599;DHT22;14240;51.064;16.612;2022-11-15T14:23:26;13.90;99.90
26599;DHT22;14240;51.064;16.612;2022-11-15T14:25:56;13.80;99.90
26599;DHT22;14240;51.064;16.612;2022-11-15T14:30:48;13.70;99.90
26599;DHT22;14240;51.064;16.612;2022-11-15T14:35:49;13.60;99.90
26599;DHT22;14240;51.064;16.612;2022-11-15T14:38:15;13.50;99.90
26599;DHT22;14240;51.064;16.612;2022-11-15T14:40:42;13.50;99.90
26599;DHT22;14240;51.064;16.612;2022-11-15T14:43:12;13.40;99.90
26599;DHT22;14240;51.064;16.612;2022-11-15T14:45:38;13.40;99.90
26599;DHT22;14240;51.064;16.612;2022-11-15T14:48:05;13.30;99.90
26599;DHT22;14240;51.064;16.612;2022-11-15T14:50:32;13.30;99.90
26599;DHT22;14240;51.064;16.612;2022-11-15T14:52:58;13.20;99.90
26599;DHT22;14240;51.064;16.612;2022-11-15T14:55:27;13.20;99.90
26599;DHT22;14240;51.064;16.612;2022-11-15T14:57:54;13.10;99.90
26599;DHT22;14240;51.064;16.612;2022-11-15T15:00:20;13.00;99.90
26599;DHT22;14240;51.064;16.612;2022-11-15T15:02:47;12.90;99.90
26599;DHT22;14240;51.064;16.612;2022-11-15T15:05:18;12.80;99.90
26599;DHT22;14240;51.064;16.612;2022-11-15T15:07:44;12.70;99.90
26599;DHT22;14240;51.064;16.612;2022-11-15T15:10:10;12.60;99.90
26599;DHT22;14240;51.064;16.612;2022-11-15T15:12:36;12.50;99.90
26599;DHT22;14240;51.064;16.612;2022-11-15T15:15:02;12.40;99.90
26599;DHT22;14240;51.064;16.612;2022-11-15T15:17:28;12.20;99.90
26599;DHT22;14240;51.064;16.612;2022-11-15T15:19:54;12.10;99.90
26599;DHT22;14240;51.064;16.612;2022-11-15T15:22:20;12.10;99.90
26599;DHT22;14240;51.064;16.612;2022-11-15T15:24:51;12.00;99.90
26599;DHT22;14240;51.064;16.612;2022-11-15T15:27:16;11.90;99.90
26599;DHT22;14240;51.064;16.612;2022-11-15T15:29:42;11.80;99.90
26599;DHT22;14240;51.064;16.612;2022-11-15T15:32:09;11.70;99.90
26599;DHT22;14240;51.064;16.612;2022-11-15T15:34:35;11.70;99.90
26599;DHT22;14240;51.064;16.612;2022-11-15T15:37:23;11.60;99.90
26599;DHT22;14240;51.064;16.612;2022-11-15T15:39:51;11.50;99.90
26599;DHT22;14240;51.064;16.612;2022-11-15T15:42:17;11.40;99.90
26599;DHT22;14240;51.064;16.612;2022-11-15T15:44:42;11.40;99.90
26599;DHT22;14240;51.064;16.612;2022-11-15T15:47:19;11.30;99.90
26599;DHT22;14240;51.064;16.612;2022-11-15T15:49:46;11.20;99.90
26599;DHT22;14240;51.064;16.612;2022-11-15T15:52:12;11.10;99.90
26599;DHT22;14240;51.064;16.612;2022-11-15T15:54:39;11.00;99.90
26599;DHT22;14240;51.064;16.612;2022-11-15T15:57:06;10.90;99.90
26599;DHT22;14240;51.064;16.612;2022-11-15T15:59:32;10.90;99.90
26599;DHT22;14240;51.064;16.612;2022-11-15T16:01:58;10.70;99.90
26599;DHT22;14240;51.064;16.612;2022-11-15T16:04:24;10.60;99.90
26599;DHT22;14240;51.064;16.612;2022-11-15T16:06:50;10.60;99.90
26599;DHT22;14240;51.064;16.612;2022-11-15T16:09:18;10.40;99.90
26599;DHT22;14240;51.064;16.612;2022-11-15T16:12:04;10.30;99.90
26599;DHT22;14240;51.064;16.612;2022-11-15T16:14:31;10.20;99.90
26599;DHT22;14240;51.064;16.612;2022-11-15T16:16:57;10.00;99.90
26599;DHT22;14240;51.064;16.612;2022-11-15T16:19:22;9.90;99.90
26599;DHT22;14240;51.064;16.612;2022-11-15T16:21:48;9.90;99.90
26599;DHT22;14240;51.064;16.612;2022-11-15T16:24:14;9.80;99.90
26599;DHT22;14240;51.064;16.612;2022-11-15T16:26:40;9.70;99.90
26599;DHT22;14240;51.064;16.612;2022-11-15T16:29:07;9.70;99.90
26599;DHT22;14240;51.064;16.612;2022-11-15T16:31:34;9.60;99.90
26599;DHT22;14240;51.064;16.612;2022-11-15T16:34:00;9.60;99.90
26599;DHT22;14240;51.064;16.612;2022-11-15T16:36:26;9.60;99.90
26599;DHT22;14240;51.064;16.612;2022-11-15T16:38:52;9.50;99.90
26599;DHT22;14240;51.064;16.612;2022-11-15T16:41:18;9.50;99.90
26599;DHT22;14240;51.064;16.612;2022-11-15T16:43:53;9.50;99.90
26599;DHT22;14240;51.064;16.612;2022-11-15T16:46:21;9.50;99.90
26599;DHT22;14240;51.064;16.612;2022-11-15T16:48:47;9.40;99.90
26599;DHT22;14240;51.064;16.612;2022-11-15T16:51:14;9.40;99.90
26599;DHT22;14240;51.064;16.612;2022-11-15T16:53:40;9.40;99.90
26599;DHT22;14240;51.064;16.612;2022-11-15T16:58:46;9.30;99.90
26599;DHT22;14240;51.064;16.612;2022-11-15T17:01:24;9.20;99.90
26599;DHT22;14240;51.064;16.612;2022-11-15T17:03:50;9.20;99.90
26599;DHT22;14240;51.064;16.612;2022-11-15T17:06:16;9.20;99.90
26599;DHT22;14240;51.064;16.612;2022-11-15T17:08:45;9.10;99.90
26599;DHT22;14240;51.064;16.612;2022-11-15T17:11:20;9.10;99.90
26599;DHT22;14240;51.064;16.612;2022-11-15T17:13:47;9.00;99.90
26599;DHT22;14240;51.064;16.612;2022-11-15T17:16:15;9.00;99.90
26599;DHT22;14240;51.064;16.612;2022-11-15T17:18:42;9.00;99.90
26599;DHT22;14240;51.064;16.612;2022-11-15T17:21:18;9.00;99.90
26599;DHT22;14240;51.064;16.612;2022-11-15T17:23:44;8.90;99.90
26599;DHT22;14240;51.064;16.612;2022-11-15T17:26:11;8.90;99.90
26599;DHT22;14240;51.064;16.612;2022-11-15T17:28:38;8.80;99.90
26599;DHT22;14240;51.064;16.612;2022-11-15T17:31:09;8.80;99.90
26599;DHT22;14240;51.064;16.612;2022-11-15T17:33:36;8.80;99.90
26599;DHT22;14240;51.064;16.612;2022-11-15T17:36:04;8.70;99.90
26599;DHT22;14240;51.064;16.612;2022-11-15T17:38:31;8.70;99.90
26599;DHT22;14240;51.064;16.612;2022-11-15T17:41:04;8.60;99.90
26599;DHT22;14240;51.064;16.612;2022-11-15T17:43:32;8.60;99.90
26599;DHT22;14240;51.064;16.612;2022-11-15T17:45:58;8.60;99.90